createdAt,value
2018-08-25T00:00:19.072Z,14.10
2018-08-25T00:02:47.265Z,14.20
2018-08-25T00:05:15.554Z,14.10
2018-08-25T00:07:43.785Z,14.10
2018-08-25T00:10:11.965Z,14.10
2018-08-25T00:12:40.145Z,14.10
2018-08-25T00:15:08.348Z,14.10
2018-08-25T00:17:36.682Z,14.10
2018-08-25T00:20:05.632Z,14.10
2018-08-25T00:22:33.830Z,14.10
2018-08-25T00:25:02.132Z,14.10
2018-08-25T00:27:30.464Z,14.10
2018-08-25T00:29:58.635Z,14.10
2018-08-25T00:32:26.808Z,14.00
2018-08-25T00:34:54.995Z,14.00
2018-08-25T00:37:23.205Z,14.00
2018-08-25T00:39:51.375Z,14.00
2018-08-25T00:42:19.556Z,14.00
2018-08-25T00:44:47.748Z,14.00
2018-08-25T00:47:15.957Z,14.00
2018-08-25T00:49:44.221Z,14.00
2018-08-25T00:52:12.400Z,14.00
2018-08-25T00:54:40.588Z,14.00
2018-08-25T00:57:08.872Z,14.00
2018-08-25T00:59:37.500Z,14.00
2018-08-25T01:02:05.740Z,14.00
2018-08-25T01:04:33.974Z,14.00
2018-08-25T01:07:02.846Z,14.00
2018-08-25T01:09:31.090Z,14.00
2018-08-25T01:11:59.341Z,14.00
2018-08-25T01:14:27.546Z,14.00
2018-08-25T01:16:55.724Z,14.00
2018-08-25T01:19:23.919Z,14.00
2018-08-25T01:21:52.108Z,14.00
2018-08-25T01:24:20.278Z,14.00
2018-08-25T01:26:48.491Z,14.00
2018-08-25T01:29:16.677Z,14.00
2018-08-25T01:31:44.850Z,14.00
2018-08-25T01:34:13.096Z,14.00
2018-08-25T01:36:41.346Z,14.00
2018-08-25T01:39:09.972Z,14.00
2018-08-25T01:41:38.412Z,14.10
2018-08-25T01:44:06.622Z,14.00
2018-08-25T01:46:34.871Z,14.00
2018-08-25T01:49:03.227Z,14.00
2018-08-25T01:51:31.449Z,14.00
2018-08-25T01:53:59.720Z,14.00
2018-08-25T01:56:27.913Z,14.00
2018-08-25T01:58:56.092Z,14.00
2018-08-25T02:01:24.341Z,14.00
2018-08-25T02:03:52.566Z,14.00
2018-08-25T02:06:20.754Z,14.00
2018-08-25T02:08:49.067Z,14.00
2018-08-25T02:11:17.396Z,14.00
2018-08-25T02:13:45.569Z,14.00
2018-08-25T02:16:13.755Z,13.90
2018-08-25T02:18:41.932Z,13.90
2018-08-25T02:21:10.125Z,13.80
2018-08-25T02:23:38.313Z,13.70
2018-08-25T02:26:06.499Z,13.60
2018-08-25T02:28:34.794Z,13.50
2018-08-25T02:31:02.989Z,13.50
2018-08-25T02:33:31.172Z,13.40
2018-08-25T02:35:59.412Z,13.30
2018-08-25T02:38:27.625Z,13.30
2018-08-25T02:40:55.834Z,13.20
2018-08-25T02:43:24.046Z,13.10
2018-08-25T02:45:52.311Z,13.10
2018-08-25T02:48:20.589Z,13.00
2018-08-25T02:50:48.852Z,13.00
2018-08-25T02:53:17.029Z,12.90
2018-08-25T02:55:45.391Z,12.90
2018-08-25T02:58:13.571Z,12.80
2018-08-25T03:00:41.751Z,12.80
2018-08-25T03:03:09.954Z,12.80
2018-08-25T03:05:38.234Z,12.70
2018-08-25T03:08:06.453Z,12.70
2018-08-25T03:10:35.348Z,12.70
2018-08-25T03:13:03.524Z,12.60
2018-08-25T03:15:31.814Z,12.60
2018-08-25T03:18:00.117Z,12.50
2018-08-25T03:20:28.365Z,12.50
2018-08-25T03:22:56.724Z,12.40
2018-08-25T03:25:25.107Z,12.40
2018-08-25T03:27:53.377Z,12.30
2018-08-25T03:30:21.780Z,12.20
2018-08-25T03:32:50.281Z,12.20
2018-08-25T03:35:18.574Z,12.10
2018-08-25T03:37:46.796Z,12.10
2018-08-25T03:45:02.202Z,12.10
2018-08-25T03:47:31.642Z,12.00
2018-08-25T03:49:59.861Z,11.90
2018-08-25T03:52:28.204Z,11.90
2018-08-25T03:54:56.498Z,11.80
2018-08-25T03:57:24.789Z,11.80
2018-08-25T03:59:53.309Z,11.80
2018-08-25T04:02:21.648Z,11.80
2018-08-25T04:04:49.918Z,11.80
2018-08-25T04:07:18.209Z,11.80
2018-08-25T04:09:46.626Z,11.80
2018-08-25T04:12:14.876Z,11.70
2018-08-25T04:14:43.140Z,11.60
2018-08-25T04:17:11.284Z,11.60
2018-08-25T04:19:39.491Z,11.60
2018-08-25T04:22:07.817Z,11.60
2018-08-25T04:24:36.132Z,11.60
2018-08-25T04:27:04.437Z,11.60
2018-08-25T04:29:32.756Z,11.50
2018-08-25T04:32:00.958Z,11.50
2018-08-25T04:34:29.241Z,11.50
2018-08-25T04:36:57.494Z,11.50
2018-08-25T04:39:25.770Z,11.50
2018-08-25T04:41:54.060Z,11.50
2018-08-25T04:44:22.303Z,11.50
2018-08-25T04:46:51.521Z,11.50
2018-08-25T04:49:19.801Z,11.50
2018-08-25T04:51:49.185Z,11.50
2018-08-25T04:54:17.498Z,11.50
2018-08-25T04:56:45.763Z,11.50
2018-08-25T04:59:14.021Z,11.40
2018-08-25T05:01:42.358Z,11.40
2018-08-25T05:04:11.505Z,11.40
2018-08-25T05:06:39.888Z,11.40
2018-08-25T05:09:10.257Z,11.40
2018-08-25T05:11:38.652Z,11.30
2018-08-25T05:14:06.845Z,11.30
2018-08-25T05:16:35.116Z,11.30
2018-08-25T05:19:03.289Z,11.20
2018-08-25T05:21:31.608Z,11.20
2018-08-25T05:24:00.418Z,11.10
2018-08-25T05:26:28.795Z,11.00
2018-08-25T05:28:57.120Z,11.00
2018-08-25T05:31:25.564Z,10.90
2018-08-25T05:33:53.844Z,10.90
2018-08-25T05:36:22.041Z,10.80
2018-08-25T05:38:50.260Z,10.80
2018-08-25T05:41:18.605Z,10.80
2018-08-25T05:43:47.032Z,10.80
2018-08-25T05:46:15.237Z,10.70
2018-08-25T05:48:44.616Z,10.70
2018-08-25T05:51:13.128Z,10.70
2018-08-25T05:53:41.486Z,10.70
2018-08-25T05:56:09.669Z,10.70
2018-08-25T05:58:37.844Z,10.70
2018-08-25T06:01:06.124Z,10.80
2018-08-25T06:03:34.425Z,10.80
2018-08-25T06:06:03.140Z,10.80
2018-08-25T06:08:31.685Z,10.80
2018-08-25T06:11:00.325Z,10.80
2018-08-25T06:13:28.566Z,10.90
2018-08-25T06:15:56.835Z,10.90
2018-08-25T06:18:25.069Z,10.90
2018-08-25T06:20:53.368Z,10.90
2018-08-25T06:23:21.997Z,10.90
2018-08-25T06:25:50.226Z,11.00
2018-08-25T06:28:18.470Z,11.00
2018-08-25T06:30:46.676Z,11.00
2018-08-25T06:33:17.108Z,11.10
2018-08-25T06:35:45.354Z,11.10
2018-08-25T06:38:13.525Z,11.10
2018-08-25T06:40:41.792Z,11.10
2018-08-25T06:43:09.979Z,11.20
2018-08-25T06:45:38.474Z,11.20
2018-08-25T06:48:07.487Z,11.20
2018-08-25T06:50:35.786Z,11.20
2018-08-25T06:53:04.146Z,11.20
2018-08-25T06:55:32.666Z,11.20
2018-08-25T06:58:00.966Z,11.30
2018-08-25T07:00:29.561Z,11.40
2018-08-25T07:02:58.047Z,11.40
2018-08-25T07:05:26.304Z,11.50
2018-08-25T07:07:54.840Z,11.50
2018-08-25T07:10:23.281Z,11.60
2018-08-25T07:12:51.530Z,11.60
2018-08-25T07:15:19.961Z,11.70
2018-08-25T07:17:48.150Z,11.70
2018-08-25T07:20:16.335Z,11.70
2018-08-25T07:22:44.506Z,11.70
2018-08-25T07:25:12.748Z,11.70
2018-08-25T07:27:40.914Z,11.70
2018-08-25T07:30:09.109Z,11.70
2018-08-25T07:32:37.283Z,11.80
2018-08-25T07:35:05.533Z,11.90
2018-08-25T07:37:33.690Z,11.90
2018-08-25T07:40:01.886Z,11.90
2018-08-25T07:42:30.408Z,11.90
2018-08-25T07:44:58.584Z,12.00
2018-08-25T07:47:26.757Z,12.00
2018-08-25T07:49:54.969Z,12.00
2018-08-25T07:52:23.144Z,12.10
2018-08-25T07:54:51.429Z,12.20
2018-08-25T07:57:19.605Z,12.20
2018-08-25T07:59:47.802Z,12.30
2018-08-25T08:02:16.394Z,12.30
2018-08-25T08:04:44.638Z,12.40
2018-08-25T08:07:12.803Z,12.40
2018-08-25T08:09:40.977Z,12.50
2018-08-25T08:12:09.184Z,12.60
2018-08-25T08:14:37.465Z,12.60
2018-08-25T08:17:05.693Z,12.70
2018-08-25T08:19:33.858Z,12.80
2018-08-25T08:22:02.017Z,12.90
2018-08-25T08:24:30.184Z,12.90
2018-08-25T08:26:58.582Z,12.90
2018-08-25T08:29:26.769Z,12.90
2018-08-25T08:31:54.932Z,12.80
2018-08-25T08:34:23.107Z,12.70
2018-08-25T08:36:51.481Z,12.70
2018-08-25T08:39:19.842Z,12.60
2018-08-25T08:41:48.041Z,12.60
2018-08-25T08:44:17.394Z,12.60
2018-08-25T08:46:45.613Z,12.60
2018-08-25T08:49:13.814Z,12.60
2018-08-25T08:51:41.955Z,12.50
2018-08-25T08:54:10.129Z,12.50
2018-08-25T08:56:38.425Z,12.40
2018-08-25T08:59:06.427Z,12.40
2018-08-25T09:01:34.708Z,12.40
2018-08-25T09:04:03.064Z,12.40
2018-08-25T09:06:31.254Z,12.40
2018-08-25T09:08:59.681Z,12.40
2018-08-25T09:11:28.159Z,12.40
2018-08-25T09:13:57.132Z,12.40
2018-08-25T09:16:25.321Z,12.40
2018-08-25T09:18:53.565Z,12.50
2018-08-25T09:21:21.776Z,12.60
2018-08-25T09:23:50.129Z,12.60
2018-08-25T09:26:18.303Z,12.60
2018-08-25T09:28:46.646Z,12.70
2018-08-25T09:31:14.824Z,12.70
2018-08-25T09:33:43.015Z,12.70
2018-08-25T09:36:11.334Z,12.70
2018-08-25T09:38:39.420Z,12.70
2018-08-25T09:41:07.648Z,12.80
2018-08-25T09:43:35.959Z,13.00
2018-08-25T09:46:04.456Z,13.10
2018-08-25T09:48:32.923Z,13.20
2018-08-25T09:51:01.095Z,13.30
2018-08-25T09:53:29.292Z,13.30
2018-08-25T09:55:57.437Z,13.30
2018-08-25T09:58:25.864Z,13.30
2018-08-25T10:00:59.304Z,13.20
2018-08-25T10:03:27.481Z,13.20
2018-08-25T10:05:55.761Z,13.20
2018-08-25T10:08:24.281Z,13.10
2018-08-25T10:10:52.480Z,13.10
2018-08-25T10:13:21.119Z,13.00
2018-08-25T10:15:49.287Z,13.00
2018-08-25T10:18:17.480Z,13.00
2018-08-25T10:20:46.512Z,13.00
2018-08-25T10:23:14.708Z,13.00
2018-08-25T10:25:42.859Z,13.00
2018-08-25T10:28:11.069Z,12.90
2018-08-25T10:30:39.245Z,12.80
2018-08-25T10:33:07.444Z,12.80
2018-08-25T10:35:35.625Z,12.70
2018-08-25T10:38:03.763Z,12.70
2018-08-25T10:40:31.938Z,12.70
2018-08-25T10:43:00.109Z,12.80
2018-08-25T10:45:28.301Z,13.00
2018-08-25T10:47:56.530Z,13.20
2018-08-25T10:50:24.884Z,13.30
2018-08-25T10:52:53.049Z,13.30
2018-08-25T10:55:21.229Z,13.30
2018-08-25T10:57:49.436Z,13.30
2018-08-25T11:00:17.624Z,13.20
2018-08-25T11:02:45.759Z,13.20
2018-08-25T11:05:13.926Z,13.10
2018-08-25T11:07:42.108Z,13.10
2018-08-25T11:10:10.353Z,13.10
2018-08-25T11:12:38.530Z,13.20
2018-08-25T11:15:06.703Z,13.20
2018-08-25T11:17:34.914Z,13.30
2018-08-25T11:20:03.121Z,13.40
2018-08-25T11:22:31.316Z,13.50
2018-08-25T11:24:59.531Z,13.60
2018-08-25T11:27:27.693Z,13.70
2018-08-25T11:29:55.864Z,13.80
2018-08-25T11:32:24.064Z,14.00
2018-08-25T11:34:52.229Z,14.10
2018-08-25T11:37:20.713Z,14.20
2018-08-25T11:39:48.860Z,14.30
2018-08-25T11:42:17.028Z,14.30
2018-08-25T11:44:45.205Z,14.30
2018-08-25T11:47:15.629Z,14.40
2018-08-25T11:49:44.591Z,14.40
2018-08-25T11:52:12.834Z,14.40
2018-08-25T11:54:41.015Z,14.40
2018-08-25T11:57:09.580Z,14.30
2018-08-25T11:59:37.741Z,14.30
2018-08-25T12:02:06.036Z,14.40
2018-08-25T12:04:34.329Z,14.40
2018-08-25T12:07:02.508Z,14.60
2018-08-25T12:09:30.845Z,14.70
2018-08-25T12:11:59.033Z,14.70
2018-08-25T12:14:27.189Z,14.80
2018-08-25T12:16:55.380Z,14.90
2018-08-25T12:19:23.542Z,14.90
2018-08-25T12:21:52.601Z,14.90
2018-08-25T12:24:20.820Z,15.00
2018-08-25T12:26:49.992Z,15.10
2018-08-25T12:29:18.156Z,15.20
2018-08-25T12:31:46.322Z,15.30
2018-08-25T12:34:14.514Z,15.40
2018-08-25T12:36:42.803Z,15.90
2018-08-25T12:39:12.028Z,15.80
2018-08-25T12:41:41.825Z,16.10
2018-08-25T12:44:10.443Z,16.20
2018-08-25T12:46:38.603Z,16.30
2018-08-25T12:49:06.792Z,16.30
2018-08-25T12:51:35.006Z,16.40
2018-08-25T12:54:03.160Z,16.60
2018-08-25T12:56:31.320Z,16.90
2018-08-25T12:58:59.509Z,17.10
2018-08-25T13:01:27.656Z,17.10
2018-08-25T13:03:55.825Z,17.20
2018-08-25T13:06:24.093Z,17.10
2018-08-25T13:08:52.264Z,17.10
2018-08-25T13:11:20.438Z,17.10
2018-08-25T13:13:48.664Z,17.00
2018-08-25T13:16:16.860Z,16.90
2018-08-25T13:18:45.095Z,16.70
2018-08-25T13:21:13.209Z,16.40
2018-08-25T13:23:41.520Z,16.30
2018-08-25T13:26:09.691Z,16.40
2018-08-25T13:28:37.864Z,16.60
2018-08-25T13:31:06.337Z,16.80
2018-08-25T13:33:35.661Z,17.00
2018-08-25T13:36:03.823Z,17.10
2018-08-25T13:38:31.996Z,17.20
2018-08-25T13:41:01.433Z,17.30
2018-08-25T13:43:29.588Z,17.40
2018-08-25T13:45:57.732Z,17.30
2018-08-25T13:48:25.899Z,16.70
2018-08-25T13:50:54.133Z,16.20
2018-08-25T13:53:22.273Z,15.70
2018-08-25T13:55:50.428Z,15.30
2018-08-25T13:58:18.736Z,14.90
2018-08-25T14:00:46.853Z,14.50
2018-08-25T14:03:15.017Z,14.20
2018-08-25T14:05:43.572Z,13.90
2018-08-25T14:08:11.929Z,13.60
2018-08-25T14:10:40.056Z,13.50
2018-08-25T14:13:08.247Z,13.30
2018-08-25T14:15:36.706Z,13.20
2018-08-25T14:18:05.064Z,13.10
2018-08-25T14:20:33.228Z,13.10
2018-08-25T14:23:01.461Z,13.10
2018-08-25T14:25:29.844Z,13.10
2018-08-25T14:27:58.040Z,13.00
2018-08-25T14:30:26.208Z,13.00
2018-08-25T14:32:54.382Z,13.10
2018-08-25T14:35:22.555Z,13.00
2018-08-25T14:37:50.730Z,13.00
2018-08-25T14:40:18.903Z,13.00
2018-08-25T14:42:47.075Z,13.00
2018-08-25T14:45:15.269Z,13.00
2018-08-25T14:47:43.450Z,13.00
2018-08-25T14:50:11.597Z,13.10
2018-08-25T14:52:39.858Z,13.10
2018-08-25T14:55:08.030Z,13.10
2018-08-25T14:57:36.217Z,13.20
2018-08-25T15:00:04.436Z,13.20
2018-08-25T15:02:32.620Z,13.40
2018-08-25T15:05:00.786Z,13.50
2018-08-25T15:07:28.969Z,13.70
2018-08-25T15:09:57.131Z,13.90
2018-08-25T15:12:25.321Z,14.10
2018-08-25T15:14:53.538Z,14.30
2018-08-25T15:17:23.735Z,14.50
2018-08-25T15:19:51.985Z,14.60
2018-08-25T15:22:20.152Z,14.70
2018-08-25T15:24:48.425Z,14.70
2018-08-25T15:27:16.616Z,14.70
2018-08-25T15:29:44.748Z,14.70
2018-08-25T15:32:12.936Z,14.70
2018-08-25T15:34:41.130Z,14.70
2018-08-25T15:37:09.375Z,14.60
2018-08-25T15:39:37.813Z,14.60
2018-08-25T15:42:06.116Z,14.60
2018-08-25T15:44:34.290Z,14.60
2018-08-25T15:47:02.570Z,14.60
2018-08-25T15:49:30.797Z,14.50
2018-08-25T15:51:59.045Z,14.60
2018-08-25T15:54:27.854Z,14.60
2018-08-25T15:56:56.253Z,14.60
2018-08-25T15:59:24.482Z,14.70
2018-08-25T16:01:52.653Z,14.70
2018-08-25T16:04:20.856Z,14.80
2018-08-25T16:06:49.014Z,14.80
2018-08-25T16:09:17.160Z,14.80
2018-08-25T16:11:45.938Z,14.90
2018-08-25T16:14:14.401Z,15.00
2018-08-25T16:16:42.800Z,15.10
2018-08-25T16:19:11.045Z,15.20
2018-08-25T16:21:39.630Z,15.20
2018-08-25T16:24:07.828Z,15.30
2018-08-25T16:26:35.989Z,15.30
2018-08-25T16:29:04.160Z,15.30
2018-08-25T16:31:32.312Z,15.30
2018-08-25T16:34:00.495Z,15.20
2018-08-25T16:36:28.652Z,15.20
2018-08-25T16:38:57.119Z,15.10
2018-08-25T16:41:25.364Z,15.10
2018-08-25T16:43:53.541Z,15.00
2018-08-25T16:46:21.822Z,14.90
2018-08-25T16:48:50.369Z,14.90
2018-08-25T16:51:18.925Z,14.80
2018-08-25T16:53:47.375Z,14.80
2018-08-25T16:56:15.729Z,14.80
2018-08-25T16:58:44.389Z,14.90
2018-08-25T17:01:12.716Z,14.90
2018-08-25T17:03:41.227Z,14.90
2018-08-25T17:06:09.453Z,14.90
2018-08-25T17:08:38.451Z,14.90
2018-08-25T17:11:06.734Z,14.90
2018-08-25T17:13:35.009Z,14.90
2018-08-25T17:16:03.891Z,14.90
2018-08-25T17:18:32.179Z,14.90
2018-08-25T17:21:00.494Z,14.90
2018-08-25T17:23:28.770Z,14.80
2018-08-25T17:25:57.299Z,14.80
2018-08-25T17:28:25.666Z,14.80
2018-08-25T17:30:54.165Z,14.80
2018-08-25T17:33:23.013Z,14.70
2018-08-25T17:35:52.145Z,14.70
2018-08-25T17:38:20.369Z,14.70
2018-08-25T17:40:48.708Z,14.70
2018-08-25T17:43:17.976Z,14.60
2018-08-25T17:45:46.180Z,14.60
2018-08-25T17:48:14.333Z,14.60
2018-08-25T17:50:42.485Z,14.60
2018-08-25T17:53:10.637Z,14.60
2018-08-25T17:55:38.940Z,14.60
2018-08-25T17:58:07.339Z,14.60
2018-08-25T18:00:35.614Z,14.60
2018-08-25T18:03:03.775Z,14.60
2018-08-25T18:05:31.927Z,14.60
2018-08-25T18:08:00.287Z,14.60
2018-08-25T18:10:28.446Z,14.50
2018-08-25T18:12:56.619Z,14.50
2018-08-25T18:15:24.941Z,14.40
2018-08-25T18:17:53.276Z,14.40
2018-08-25T18:20:21.459Z,14.30
2018-08-25T18:22:49.666Z,14.30
2018-08-25T18:25:18.053Z,14.20
2018-08-25T18:27:46.200Z,14.20
2018-08-25T18:30:14.520Z,14.10
2018-08-25T18:32:43.584Z,14.00
2018-08-25T18:35:11.758Z,14.00
2018-08-25T18:37:39.913Z,13.90
2018-08-25T18:40:08.086Z,13.90
2018-08-25T18:42:36.247Z,13.90
2018-08-25T18:45:04.456Z,13.80
2018-08-25T18:47:32.632Z,13.80
2018-08-25T18:50:01.400Z,13.80
2018-08-25T18:52:29.659Z,13.70
2018-08-25T18:54:57.994Z,13.70
2018-08-25T18:57:26.081Z,13.70
2018-08-25T18:59:55.368Z,13.60
2018-08-25T19:02:23.948Z,13.60
2018-08-25T19:04:52.074Z,13.60
2018-08-25T19:07:20.449Z,13.60
2018-08-25T19:09:48.622Z,13.50
2018-08-25T19:12:16.798Z,13.50
2018-08-25T19:14:44.957Z,13.40
2018-08-25T19:17:13.157Z,13.40
2018-08-25T19:19:41.363Z,13.30
2018-08-25T19:22:09.555Z,13.30
2018-08-25T19:24:37.744Z,13.20
2018-08-25T19:27:05.961Z,13.20
2018-08-25T19:29:34.137Z,13.20
2018-08-25T19:32:02.314Z,13.10
2018-08-25T19:34:30.594Z,13.10
2018-08-25T19:36:59.954Z,13.10
2018-08-25T19:39:28.321Z,13.10
2018-08-25T19:41:56.554Z,13.00
2018-08-25T19:44:24.744Z,13.00
2018-08-25T19:46:53.095Z,13.00
2018-08-25T19:49:21.220Z,12.90
2018-08-25T19:51:49.566Z,12.90
2018-08-25T19:54:17.735Z,12.80
2018-08-25T19:56:46.026Z,12.80
2018-08-25T19:59:14.349Z,12.70
2018-08-25T20:01:42.519Z,12.70
2018-08-25T20:04:11.108Z,12.60
2018-08-25T20:06:39.306Z,12.60
2018-08-25T20:09:07.852Z,12.60
2018-08-25T20:11:36.412Z,12.50
2018-08-25T20:14:04.856Z,12.40
2018-08-25T20:16:33.083Z,12.40
2018-08-25T20:19:01.483Z,12.30
2018-08-25T20:21:29.738Z,12.30
2018-08-25T20:23:58.126Z,12.20
2018-08-25T20:26:26.564Z,12.20
2018-08-25T20:28:54.844Z,12.10
2018-08-25T20:31:23.165Z,12.10
2018-08-25T20:33:51.413Z,12.10
2018-08-25T20:36:19.580Z,12.00
2018-08-25T20:38:47.778Z,12.00
2018-08-25T20:41:16.250Z,11.90
2018-08-25T20:43:44.426Z,11.90
2018-08-25T20:46:12.628Z,11.80
2018-08-25T20:48:40.785Z,11.80
2018-08-25T20:51:08.953Z,11.80
2018-08-25T20:53:37.261Z,11.70
2018-08-25T20:56:05.792Z,11.70
2018-08-25T20:58:39.528Z,11.70
2018-08-25T21:01:07.865Z,11.70
2018-08-25T21:03:36.049Z,11.70
2018-08-25T21:06:04.518Z,11.70
2018-08-25T21:08:32.717Z,11.70
2018-08-25T21:11:00.935Z,11.70
2018-08-25T21:13:29.116Z,11.70
2018-08-25T21:15:57.352Z,11.60
2018-08-25T21:18:25.654Z,11.60
2018-08-25T21:20:54.002Z,11.60
2018-08-25T21:23:22.196Z,11.60
2018-08-25T21:25:50.424Z,11.60
2018-08-25T21:28:18.828Z,11.60
2018-08-25T21:30:47.068Z,11.60
2018-08-25T21:33:16.862Z,11.60
2018-08-25T21:35:45.145Z,11.60
2018-08-25T21:38:13.357Z,11.70
2018-08-25T21:40:41.556Z,11.60
2018-08-25T21:43:09.716Z,11.60
2018-08-25T21:45:37.885Z,11.60
2018-08-25T21:48:05.789Z,11.60
2018-08-25T21:50:33.976Z,11.60
2018-08-25T21:53:02.346Z,11.60
2018-08-25T21:55:30.769Z,11.60
2018-08-25T21:57:59.098Z,11.50
2018-08-25T22:00:27.460Z,11.50
2018-08-25T22:02:55.753Z,11.50
2018-08-25T22:05:24.100Z,11.40
2018-08-25T22:07:52.509Z,11.40
2018-08-25T22:10:21.061Z,11.40
2018-08-25T22:12:50.047Z,11.40
2018-08-25T22:15:18.473Z,11.40
2018-08-25T22:17:46.684Z,11.30
2018-08-25T22:20:14.900Z,11.30
2018-08-25T22:22:43.070Z,11.30
2018-08-25T22:25:11.297Z,11.30
2018-08-25T22:27:39.581Z,11.30
2018-08-25T22:30:07.833Z,11.20
2018-08-25T22:32:35.985Z,11.20
2018-08-25T22:35:04.144Z,11.10
2018-08-25T22:37:32.344Z,11.10
2018-08-25T22:40:00.556Z,11.10
2018-08-25T22:42:28.738Z,11.00
2018-08-25T22:44:56.903Z,11.00
2018-08-25T22:47:26.114Z,11.00
2018-08-25T22:49:54.268Z,10.90
2018-08-25T22:52:27.921Z,10.90
2018-08-25T22:54:56.221Z,10.80
2018-08-25T22:57:24.381Z,10.80
2018-08-25T22:59:52.663Z,10.80
2018-08-25T23:02:20.846Z,10.80
2018-08-25T23:04:49.091Z,10.70
2018-08-25T23:07:17.234Z,10.70
2018-08-25T23:09:45.465Z,10.70
2018-08-25T23:12:13.745Z,10.70
2018-08-25T23:14:41.955Z,10.70
2018-08-25T23:17:10.368Z,10.70
2018-08-25T23:19:38.604Z,10.70
2018-08-25T23:22:06.758Z,10.60
2018-08-25T23:24:34.919Z,10.60
2018-08-25T23:27:03.220Z,10.60
2018-08-25T23:29:31.609Z,10.70
2018-08-25T23:31:59.868Z,10.70
2018-08-25T23:34:28.157Z,10.70
2018-08-25T23:36:56.486Z,10.60
2018-08-25T23:39:24.652Z,10.60
2018-08-25T23:41:52.805Z,10.60
2018-08-25T23:44:21.557Z,10.60
2018-08-25T23:46:49.874Z,10.60
2018-08-25T23:49:18.109Z,10.50
2018-08-25T23:51:46.264Z,10.50
2018-08-25T23:54:14.544Z,10.50
2018-08-25T23:56:42.718Z,10.40
2018-08-25T23:59:10.980Z,10.40
